Time;durP1;ratioP1;P1;durP2;ratioP2;P2;SDS_P1;SDS_P2;PMS_P1;PMS_P2;Temp;Humidity;BMP_temperature;BMP_pressure;BME280_temperature;BME280_humidity;BME280_pressure;Samples;Min_cycle;Max_cycle;Signal;HPM_P1;HPM_P2
2021/09/22 00:00:05;;;;;;;15.05;11.75;;;;;;;8.28;84.33301;96314.18;;;;
2021/09/22 00:01:07;;;;;;;15.05;11.75;;;;;;;8.28;84.33301;96314.18;;;;
2021/09/22 00:02:07;;;;;;;15.05;11.75;;;;;;;8.28;84.33301;96314.18;;;;
2021/09/22 00:03:08;;;;;;;15.05;11.75;;;;;;;8.28;84.33301;96314.18;;;;
2021/09/22 00:04:08;;;;;;;15.05;11.75;;;;;;;8.28;84.33301;96314.18;;;;
2021/09/22 00:05:09;;;;;;;15.05;11.75;;;;;;;8.28;84.33301;96314.18;;;;
2021/09/22 00:06:11;;;;;;;15.05;11.75;;;;;;;8.28;84.33301;96314.18;;;;
2021/09/22 00:07:11;;;;;;;13.65;11.15;;;;;;;8.38;84.47852;96304.42;;;;
2021/09/22 00:08:12;;;;;;;13.65;11.15;;;;;;;8.38;84.47852;96304.42;;;;
2021/09/22 00:09:12;;;;;;;13.65;11.15;;;;;;;8.38;84.47852;96304.42;;;;
2021/09/22 00:10:13;;;;;;;13.65;11.15;;;;;;;8.38;84.47852;96304.42;;;;
2021/09/22 00:11:17;;;;;;;13.65;11.15;;;;;;;8.38;84.47852;96304.42;;;;
2021/09/22 00:12:18;;;;;;;13.65;11.15;;;;;;;8.38;84.47852;96304.42;;;;
2021/09/22 00:13:18;;;;;;;13.65;11.15;;;;;;;8.38;84.47852;96304.42;;;;
2021/09/22 00:14:19;;;;;;;13.65;11.15;;;;;;;8.38;84.47852;96304.42;;;;
2021/09/22 00:15:20;;;;;;;13.65;11.15;;;;;;;8.38;84.47852;96304.42;;;;
2021/09/22 00:16:24;;;;;;;13.65;11.15;;;;;;;8.38;84.47852;96304.42;;;;
2021/09/22 00:17:25;;;;;;;14.8;11.9;;;;;;;8.43;84.77637;96305.58;;;;
2021/09/22 00:18:25;;;;;;;14.8;11.9;;;;;;;8.43;84.77637;96305.58;;;;
2021/09/22 00:19:26;;;;;;;14.8;11.9;;;;;;;8.43;84.77637;96305.58;;;;
2021/09/22 00:20:26;;;;;;;14.8;11.9;;;;;;;8.43;84.77637;96305.58;;;;
2021/09/22 00:21:27;;;;;;;14.8;11.9;;;;;;;8.43;84.77637;96305.58;;;;
2021/09/22 00:22:28;;;;;;;14.8;11.9;;;;;;;8.43;84.77637;96305.58;;;;
2021/09/22 00:23:28;;;;;;;14.8;11.9;;;;;;;8.43;84.77637;96305.58;;;;
2021/09/22 00:24:28;;;;;;;14.8;11.9;;;;;;;8.43;84.77637;96305.58;;;;
2021/09/22 00:25:32;;;;;;;14.8;11.9;;;;;;;8.43;84.77637;96305.58;;;;
2021/09/22 00:26:33;;;;;;;14.8;11.9;;;;;;;8.43;84.77637;96305.58;;;;
2021/09/22 00:27:33;;;;;;;14.8;11.9;;;;;;;8.43;84.77637;96305.58;;;;
2021/09/22 00:28:35;;;;;;;16.9;12.35;;;;;;;8.58;84.86816;96303.19;;;;
2021/09/22 00:29:35;;;;;;;16.9;12.35;;;;;;;8.58;84.86816;96303.19;;;;
2021/09/22 00:30:36;;;;;;;16.9;12.35;;;;;;;8.58;84.86816;96303.19;;;;
2021/09/22 00:31:37;;;;;;;16.9;12.35;;;;;;;8.58;84.86816;96303.19;;;;
2021/09/22 00:32:37;;;;;;;16.9;12.35;;;;;;;8.58;84.86816;96303.19;;;;
2021/09/22 00:33:38;;;;;;;16.9;12.35;;;;;;;8.58;84.86816;96303.19;;;;
2021/09/22 00:34:39;;;;;;;16.9;12.35;;;;;;;8.58;84.86816;96303.19;;;;
2021/09/22 00:35:40;;;;;;;16.9;12.35;;;;;;;8.58;84.86816;96303.19;;;;
2021/09/22 00:36:41;;;;;;;16.9;12.35;;;;;;;8.58;84.86816;96303.19;;;;
2021/09/22 00:37:41;;;;;;;16.9;12.35;;;;;;;8.58;84.86816;96303.19;;;;
2021/09/22 00:38:42;;;;;;;14.1;12.4;;;;;;;8.61;85.14063;96314.39;;;;
2021/09/22 00:39:42;;;;;;;14.1;12.4;;;;;;;8.61;85.14063;96314.39;;;;
2021/09/22 00:40:42;;;;;;;14.1;12.4;;;;;;;8.61;85.14063;96314.39;;;;
2021/09/22 00:41:43;;;;;;;14.1;12.4;;;;;;;8.61;85.14063;96314.39;;;;
2021/09/22 00:42:45;;;;;;;14.1;12.4;;;;;;;8.61;85.14063;96314.39;;;;
2021/09/22 00:43:46;;;;;;;14.1;12.4;;;;;;;8.61;85.14063;96314.39;;;;
2021/09/22 00:44:46;;;;;;;14.1;12.4;;;;;;;8.61;85.14063;96314.39;;;;
2021/09/22 00:45:49;;;;;;;14.1;12.4;;;;;;;8.61;85.14063;96314.39;;;;
2021/09/22 00:46:49;;;;;;;14.1;12.4;;;;;;;8.61;85.14063;96314.39;;;;
2021/09/22 00:47:50;;;;;;;14.1;12.4;;;;;;;8.61;85.14063;96314.39;;;;
2021/09/22 00:48:50;;;;;;;14.1;12.4;;;;;;;8.61;85.14063;96314.39;;;;
2021/09/22 00:49:51;;;;;;;14;12.3;;;;;;;8.63;85.63281;96303.83;;;;
2021/09/22 00:50:51;;;;;;;14;12.3;;;;;;;8.63;85.63281;96303.83;;;;
2021/09/22 00:51:52;;;;;;;14;12.3;;;;;;;8.63;85.63281;96303.83;;;;
2021/09/22 00:52:53;;;;;;;14;12.3;;;;;;;8.63;85.63281;96303.83;;;;
2021/09/22 00:53:54;;;;;;;14;12.3;;;;;;;8.63;85.63281;96303.83;;;;
2021/09/22 00:54:54;;;;;;;14;12.3;;;;;;;8.63;85.63281;96303.83;;;;
2021/09/22 00:55:55;;;;;;;14;12.3;;;;;;;8.63;85.63281;96303.83;;;;
2021/09/22 00:56:57;;;;;;;14;12.3;;;;;;;8.63;85.63281;96303.83;;;;
2021/09/22 00:57:59;;;;;;;14;12.3;;;;;;;8.63;85.63281;96303.83;;;;
2021/09/22 00:58:59;;;;;;;14;12.3;;;;;;;8.63;85.63281;96303.83;;;;
2021/09/22 01:00:00;;;;;;;14.85;12.45;;;;;;;8.64;86.06934;96278.56;;;;
2021/09/22 01:01:02;;;;;;;14.85;12.45;;;;;;;8.64;86.06934;96278.56;;;;
2021/09/22 01:02:03;;;;;;;14.85;12.45;;;;;;;8.64;86.06934;96278.56;;;;
2021/09/22 01:03:05;;;;;;;14.85;12.45;;;;;;;8.64;86.06934;96278.56;;;;
2021/09/22 01:04:06;;;;;;;14.85;12.45;;;;;;;8.64;86.06934;96278.56;;;;
2021/09/22 01:05:07;;;;;;;14.85;12.45;;;;;;;8.64;86.06934;96278.56;;;;
2021/09/22 01:06:08;;;;;;;14.85;12.45;;;;;;;8.64;86.06934;96278.56;;;;
2021/09/22 01:07:09;;;;;;;14.85;12.45;;;;;;;8.64;86.06934;96278.56;;;;
2021/09/22 01:08:12;;;;;;;14.85;12.45;;;;;;;8.64;86.06934;96278.56;;;;
2021/09/22 01:09:15;;;;;;;14.85;12.45;;;;;;;8.64;86.06934;96278.56;;;;
2021/09/22 01:10:16;;;;;;;14.85;12.45;;;;;;;8.64;86.06934;96278.56;;;;
2021/09/22 01:11:18;;;;;;;14.75;13.15;;;;;;;8.62;86.48047;96293.16;;;;
2021/09/22 01:12:19;;;;;;;14.75;13.15;;;;;;;8.62;86.48047;96293.16;;;;
2021/09/22 01:13:20;;;;;;;14.75;13.15;;;;;;;8.62;86.48047;96293.16;;;;
2021/09/22 01:14:20;;;;;;;14.75;13.15;;;;;;;8.62;86.48047;96293.16;;;;
2021/09/22 01:15:21;;;;;;;14.75;13.15;;;;;;;8.62;86.48047;96293.16;;;;
2021/09/22 01:16:28;;;;;;;14.75;13.15;;;;;;;8.62;86.48047;96293.16;;;;
2021/09/22 01:17:28;;;;;;;14.75;13.15;;;;;;;8.62;86.48047;96293.16;;;;
2021/09/22 01:18:29;;;;;;;14.75;13.15;;;;;;;8.62;86.48047;96293.16;;;;
2021/09/22 01:19:29;;;;;;;14.75;13.15;;;;;;;8.62;86.48047;96293.16;;;;
2021/09/22 01:20:31;;;;;;;14.75;13.15;;;;;;;8.62;86.48047;96293.16;;;;
2021/09/22 01:21:31;;;;;;;14.75;13.25;;;;;;;8.63;86.89746;96299.3;;;;
2021/09/22 01:22:32;;;;;;;14.75;13.25;;;;;;;8.63;86.89746;96299.3;;;;
2021/09/22 01:23:33;;;;;;;14.75;13.25;;;;;;;8.63;86.89746;96299.3;;;;
2021/09/22 01:24:33;;;;;;;14.75;13.25;;;;;;;8.63;86.89746;96299.3;;;;
2021/09/22 01:25:34;;;;;;;14.75;13.25;;;;;;;8.63;86.89746;96299.3;;;;
2021/09/22 01:26:36;;;;;;;14.75;13.25;;;;;;;8.63;86.89746;96299.3;;;;
2021/09/22 01:27:37;;;;;;;14.75;13.25;;;;;;;8.63;86.89746;96299.3;;;;
2021/09/22 01:28:45;;;;;;;14.75;13.25;;;;;;;8.63;86.89746;96299.3;;;;
2021/09/22 01:29:46;;;;;;;14.75;13.25;;;;;;;8.63;86.89746;96299.3;;;;
2021/09/22 01:30:47;;;;;;;14.75;13.25;;;;;;;8.63;86.89746;96299.3;;;;
2021/09/22 01:31:48;;;;;;;14.75;13.25;;;;;;;8.63;86.89746;96299.3;;;;
2021/09/22 01:32:49;;;;;;;15.45;13;;;;;;;8.62;87.27539;96277.01;;;;
2021/09/22 01:33:53;;;;;;;15.45;13;;;;;;;8.62;87.27539;96277.01;;;;
2021/09/22 01:34:55;;;;;;;15.45;13;;;;;;;8.62;87.27539;96277.01;;;;
2021/09/22 01:35:55;;;;;;;15.45;13;;;;;;;8.62;87.27539;96277.01;;;;
2021/09/22 01:36:56;;;;;;;15.45;13;;;;;;;8.62;87.27539;96277.01;;;;
2021/09/22 01:37:56;;;;;;;15.45;13;;;;;;;8.62;87.27539;96277.01;;;;
2021/09/22 01:38:57;;;;;;;15.45;13;;;;;;;8.62;87.27539;96277.01;;;;
2021/09/22 01:39:58;;;;;;;15.45;13;;;;;;;8.62;87.27539;96277.01;;;;
2021/09/22 01:40:58;;;;;;;15.45;13;;;;;;;8.62;87.27539;96277.01;;;;
2021/09/22 01:42:01;;;;;;;15.45;13;;;;;;;8.62;87.27539;96277.01;;;;
2021/09/22 01:43:02;;;;;;;16.25;13.55;;;;;;;8.63;87.68945;96295.34;;;;
2021/09/22 01:44:03;;;;;;;16.25;13.55;;;;;;;8.63;87.68945;96295.34;;;;
2021/09/22 01:45:05;;;;;;;16.25;13.55;;;;;;;8.63;87.68945;96295.34;;;;
2021/09/22 01:46:07;;;;;;;16.25;13.55;;;;;;;8.63;87.68945;96295.34;;;;
2021/09/22 01:47:08;;;;;;;16.25;13.55;;;;;;;8.63;87.68945;96295.34;;;;
2021/09/22 01:48:09;;;;;;;16.25;13.55;;;;;;;8.63;87.68945;96295.34;;;;
2021/09/22 01:49:10;;;;;;;16.25;13.55;;;;;;;8.63;87.68945;96295.34;;;;
2021/09/22 01:50:21;;;;;;;16.25;13.55;;;;;;;8.63;87.68945;96295.34;;;;
2021/09/22 01:51:22;;;;;;;16.25;13.55;;;;;;;8.63;87.68945;96295.34;;;;
2021/09/22 01:52:22;;;;;;;16.25;13.55;;;;;;;8.63;87.68945;96295.34;;;;
2021/09/22 01:53:23;;;;;;;16.95;14;;;;;;;8.7;87.83203;96249.52;;;;
2021/09/22 01:54:23;;;;;;;16.95;14;;;;;;;8.7;87.83203;96249.52;;;;
2021/09/22 01:55:24;;;;;;;16.95;14;;;;;;;8.7;87.83203;96249.52;;;;
2021/09/22 01:56:25;;;;;;;16.95;14;;;;;;;8.7;87.83203;96249.52;;;;
2021/09/22 01:57:26;;;;;;;16.95;14;;;;;;;8.7;87.83203;96249.52;;;;
2021/09/22 01:58:26;;;;;;;16.95;14;;;;;;;8.7;87.83203;96249.52;;;;
2021/09/22 01:59:28;;;;;;;16.95;14;;;;;;;8.7;87.83203;96249.52;;;;
2021/09/22 02:00:28;;;;;;;16.95;14;;;;;;;8.7;87.83203;96249.52;;;;
2021/09/22 02:01:29;;;;;;;16.95;14;;;;;;;8.7;87.83203;96249.52;;;;
2021/09/22 02:02:31;;;;;;;16.95;14;;;;;;;8.7;87.83203;96249.52;;;;
2021/09/22 02:03:31;;;;;;;16.95;14;;;;;;;8.7;87.83203;96249.52;;;;
2021/09/22 02:04:32;;;;;;;16.95;14;;;;;;;8.7;87.83203;96249.52;;;;
2021/09/22 02:05:33;;;;;;;16.95;14;;;;;;;8.7;87.83203;96249.52;;;;
2021/09/22 02:06:33;;;;;;;16.95;14;;;;;;;8.7;87.83203;96249.52;;;;
2021/09/22 02:07:34;;;;;;;16.95;14;;;;;;;8.7;87.83203;96249.52;;;;
2021/09/22 02:08:39;;;;;;;16.95;14;;;;;;;8.7;87.83203;96249.52;;;;
2021/09/22 02:09:39;;;;;;;16.95;14;;;;;;;8.7;87.83203;96249.52;;;;
2021/09/22 02:10:40;;;;;;;16.95;14;;;;;;;8.7;87.83203;96249.52;;;;
2021/09/22 02:11:41;;;;;;;16.95;14;;;;;;;8.7;87.83203;96249.52;;;;
2021/09/22 02:12:41;;;;;;;16.95;14;;;;;;;8.7;87.83203;96249.52;;;;
2021/09/22 02:13:42;;;;;;;16.95;14;;;;;;;8.7;87.83203;96249.52;;;;
2021/09/22 02:14:42;;;;;;;16.95;14;;;;;;;8.7;87.83203;96249.52;;;;
2021/09/22 02:15:43;;;;;;;16.95;14;;;;;;;8.7;87.83203;96249.52;;;;
2021/09/22 02:16:43;;;;;;;16.95;14;;;;;;;8.7;87.83203;96249.52;;;;
2021/09/22 02:17:44;;;;;;;16.95;14;;;;;;;8.7;87.83203;96249.52;;;;
2021/09/22 02:18:44;;;;;;;16.95;14;;;;;;;8.7;87.83203;96249.52;;;;
2021/09/22 02:19:45;;;;;;;16.95;14;;;;;;;8.7;87.83203;96249.52;;;;
2021/09/22 02:20:45;;;;;;;16.95;14;;;;;;;8.7;87.83203;96249.52;;;;
2021/09/22 02:21:46;;;;;;;16.95;14;;;;;;;8.7;87.83203;96249.52;;;;
2021/09/22 02:22:46;;;;;;;16.95;14;;;;;;;8.7;87.83203;96249.52;;;;
2021/09/22 02:23:47;;;;;;;16.95;14;;;;;;;8.7;87.83203;96249.52;;;;
2021/09/22 02:24:48;;;;;;;16.95;14;;;;;;;8.7;87.83203;96249.52;;;;
2021/09/22 02:25:48;;;;;;;16.95;14;;;;;;;8.7;87.83203;96249.52;;;;
2021/09/22 02:26:51;;;;;;;16.95;14;;;;;;;8.7;87.83203;96249.52;;;;
2021/09/22 02:27:52;;;;;;;16.95;14;;;;;;;8.7;87.83203;96249.52;;;;
2021/09/22 02:28:52;;;;;;;16.95;14;;;;;;;8.7;87.83203;96249.52;;;;
2021/09/22 02:29:53;;;;;;;16.95;14;;;;;;;8.7;87.83203;96249.52;;;;
2021/09/22 02:30:53;;;;;;;16.95;14;;;;;;;8.7;87.83203;96249.52;;;;
2021/09/22 02:31:54;;;;;;;16.95;14;;;;;;;8.7;87.83203;96249.52;;;;
2021/09/22 02:32:55;;;;;;;16.95;14;;;;;;;8.7;87.83203;96249.52;;;;
2021/09/22 02:33:55;;;;;;;16.95;14;;;;;;;8.7;87.83203;96249.52;;;;
2021/09/22 02:34:56;;;;;;;16.95;14;;;;;;;8.7;87.83203;96249.52;;;;
2021/09/22 02:35:56;;;;;;;18.45;14.25;;;;;;;8.09;88.33398;96288.03;;;;
2021/09/22 02:36:57;;;;;;;18.45;14.25;;;;;;;8.09;88.33398;96288.03;;;;
2021/09/22 02:37:57;;;;;;;18.45;14.25;;;;;;;8.09;88.33398;96288.03;;;;
2021/09/22 02:38:58;;;;;;;18.45;14.25;;;;;;;8.09;88.33398;96288.03;;;;
2021/09/22 02:39:58;;;;;;;18.45;14.25;;;;;;;8.09;88.33398;96288.03;;;;
2021/09/22 02:40:59;;;;;;;18.45;14.25;;;;;;;8.09;88.33398;96288.03;;;;
2021/09/22 02:42:00;;;;;;;18.45;14.25;;;;;;;8.09;88.33398;96288.03;;;;
2021/09/22 02:43:00;;;;;;;18.45;14.25;;;;;;;8.09;88.33398;96288.03;;;;
2021/09/22 02:44:01;;;;;;;18.45;14.25;;;;;;;8.09;88.33398;96288.03;;;;
2021/09/22 02:45:02;;;;;;;18.45;14.25;;;;;;;8.09;88.33398;96288.03;;;;
2021/09/22 02:46:03;;;;;;;18.45;14.25;;;;;;;8.09;88.33398;96288.03;;;;
2021/09/22 02:47:04;;;;;;;17.8;14.3;;;;;;;7.87;88.52246;96285.91;;;;
2021/09/22 02:48:04;;;;;;;17.8;14.3;;;;;;;7.87;88.52246;96285.91;;;;
2021/09/22 02:49:05;;;;;;;17.8;14.3;;;;;;;7.87;88.52246;96285.91;;;;
2021/09/22 02:50:06;;;;;;;17.8;14.3;;;;;;;7.87;88.52246;96285.91;;;;
2021/09/22 02:51:07;;;;;;;17.8;14.3;;;;;;;7.87;88.52246;96285.91;;;;
2021/09/22 02:52:08;;;;;;;17.8;14.3;;;;;;;7.87;88.52246;96285.91;;;;
2021/09/22 02:53:08;;;;;;;17.8;14.3;;;;;;;7.87;88.52246;96285.91;;;;
2021/09/22 02:54:09;;;;;;;17.8;14.3;;;;;;;7.87;88.52246;96285.91;;;;
2021/09/22 02:55:10;;;;;;;17.8;14.3;;;;;;;7.87;88.52246;96285.91;;;;
2021/09/22 02:56:10;;;;;;;17.8;14.3;;;;;;;7.87;88.52246;96285.91;;;;
2021/09/22 02:57:11;;;;;;;17.8;14.3;;;;;;;7.87;88.52246;96285.91;;;;
2021/09/22 02:58:11;;;;;;;18.35;13.85;;;;;;;7.65;88.77734;96297.19;;;;
2021/09/22 02:59:12;;;;;;;18.35;13.85;;;;;;;7.65;88.77734;96297.19;;;;
2021/09/22 03:00:13;;;;;;;18.35;13.85;;;;;;;7.65;88.77734;96297.19;;;;
2021/09/22 03:01:15;;;;;;;18.35;13.85;;;;;;;7.65;88.77734;96297.19;;;;
2021/09/22 03:02:16;;;;;;;18.35;13.85;;;;;;;7.65;88.77734;96297.19;;;;
2021/09/22 03:03:16;;;;;;;18.35;13.85;;;;;;;7.65;88.77734;96297.19;;;;
2021/09/22 03:04:17;;;;;;;18.35;13.85;;;;;;;7.65;88.77734;96297.19;;;;
2021/09/22 03:05:17;;;;;;;18.35;13.85;;;;;;;7.65;88.77734;96297.19;;;;
2021/09/22 03:06:18;;;;;;;18.35;13.85;;;;;;;7.65;88.77734;96297.19;;;;
2021/09/22 03:07:18;;;;;;;18.35;13.85;;;;;;;7.65;88.77734;96297.19;;;;
2021/09/22 03:08:19;;;;;;;18.5;14;;;;;;;7.47;88.93945;96302.69;;;;
2021/09/22 03:09:20;;;;;;;18.5;14;;;;;;;7.47;88.93945;96302.69;;;;
2021/09/22 03:10:20;;;;;;;18.5;14;;;;;;;7.47;88.93945;96302.69;;;;
2021/09/22 03:11:21;;;;;;;18.5;14;;;;;;;7.47;88.93945;96302.69;;;;
2021/09/22 03:12:21;;;;;;;18.5;14;;;;;;;7.47;88.93945;96302.69;;;;
2021/09/22 03:13:22;;;;;;;18.5;14;;;;;;;7.47;88.93945;96302.69;;;;
2021/09/22 03:14:22;;;;;;;18.5;14;;;;;;;7.47;88.93945;96302.69;;;;
2021/09/22 03:15:23;;;;;;;18.5;14;;;;;;;7.47;88.93945;96302.69;;;;
2021/09/22 03:16:24;;;;;;;18.5;14;;;;;;;7.47;88.93945;96302.69;;;;
2021/09/22 03:17:24;;;;;;;18.5;14;;;;;;;7.47;88.93945;96302.69;;;;
2021/09/22 03:18:25;;;;;;;18.5;14;;;;;;;7.47;88.93945;96302.69;;;;
2021/09/22 03:19:26;;;;;;;18.3;12.85;;;;;;;7.26;89.12793;96302.69;;;;
2021/09/22 03:20:26;;;;;;;18.3;12.85;;;;;;;7.26;89.12793;96302.69;;;;
2021/09/22 03:21:27;;;;;;;18.3;12.85;;;;;;;7.26;89.12793;96302.69;;;;
2021/09/22 03:22:29;;;;;;;18.3;12.85;;;;;;;7.26;89.12793;96302.69;;;;
2021/09/22 03:23:29;;;;;;;18.3;12.85;;;;;;;7.26;89.12793;96302.69;;;;
2021/09/22 03:24:31;;;;;;;18.3;12.85;;;;;;;7.26;89.12793;96302.69;;;;
2021/09/22 03:25:32;;;;;;;18.3;12.85;;;;;;;7.26;89.12793;96302.69;;;;
2021/09/22 03:26:33;;;;;;;18.3;12.85;;;;;;;7.26;89.12793;96302.69;;;;
2021/09/22 03:27:33;;;;;;;18.3;12.85;;;;;;;7.26;89.12793;96302.69;;;;
2021/09/22 03:28:34;;;;;;;18.3;12.85;;;;;;;7.26;89.12793;96302.69;;;;
2021/09/22 03:29:34;;;;;;;17.8;13.05;;;;;;;7.07;89.36621;96301.86;;;;
2021/09/22 03:30:35;;;;;;;17.8;13.05;;;;;;;7.07;89.36621;96301.86;;;;
2021/09/22 03:31:35;;;;;;;17.8;13.05;;;;;;;7.07;89.36621;96301.86;;;;
2021/09/22 03:32:36;;;;;;;17.8;13.05;;;;;;;7.07;89.36621;96301.86;;;;
2021/09/22 03:33:36;;;;;;;17.8;13.05;;;;;;;7.07;89.36621;96301.86;;;;
2021/09/22 03:34:37;;;;;;;17.8;13.05;;;;;;;7.07;89.36621;96301.86;;;;
2021/09/22 03:35:37;;;;;;;17.8;13.05;;;;;;;7.07;89.36621;96301.86;;;;
2021/09/22 03:36:38;;;;;;;17.8;13.05;;;;;;;7.07;89.36621;96301.86;;;;
2021/09/22 03:37:39;;;;;;;17.8;13.05;;;;;;;7.07;89.36621;96301.86;;;;
2021/09/22 03:38:39;;;;;;;17.8;13.05;;;;;;;7.07;89.36621;96301.86;;;;
2021/09/22 03:39:40;;;;;;;17.8;13.05;;;;;;;7.07;89.36621;96301.86;;;;
2021/09/22 03:40:41;;;;;;;20.4;14.3;;;;;;;6.92;89.46094;96308.71;;;;
2021/09/22 03:41:41;;;;;;;20.4;14.3;;;;;;;6.92;89.46094;96308.71;;;;
2021/09/22 03:42:42;;;;;;;20.4;14.3;;;;;;;6.92;89.46094;96308.71;;;;
2021/09/22 03:43:42;;;;;;;20.4;14.3;;;;;;;6.92;89.46094;96308.71;;;;
2021/09/22 03:44:43;;;;;;;20.4;14.3;;;;;;;6.92;89.46094;96308.71;;;;
2021/09/22 03:45:43;;;;;;;20.4;14.3;;;;;;;6.92;89.46094;96308.71;;;;
2021/09/22 03:46:44;;;;;;;20.4;14.3;;;;;;;6.92;89.46094;96308.71;;;;
2021/09/22 03:47:44;;;;;;;20.4;14.3;;;;;;;6.92;89.46094;96308.71;;;;
2021/09/22 03:48:45;;;;;;;20.4;14.3;;;;;;;6.92;89.46094;96308.71;;;;
2021/09/22 03:49:45;;;;;;;20.4;14.3;;;;;;;6.92;89.46094;96308.71;;;;
2021/09/22 03:50:48;;;;;;;18.6;13.3;;;;;;;6.86;89.4375;96323.8;;;;
2021/09/22 03:51:49;;;;;;;18.6;13.3;;;;;;;6.86;89.4375;96323.8;;;;
2021/09/22 03:52:50;;;;;;;18.6;13.3;;;;;;;6.86;89.4375;96323.8;;;;
2021/09/22 03:53:51;;;;;;;18.6;13.3;;;;;;;6.86;89.4375;96323.8;;;;
2021/09/22 03:54:51;;;;;;;18.6;13.3;;;;;;;6.86;89.4375;96323.8;;;;
2021/09/22 03:55:52;;;;;;;18.6;13.3;;;;;;;6.86;89.4375;96323.8;;;;
2021/09/22 03:56:52;;;;;;;18.6;13.3;;;;;;;6.86;89.4375;96323.8;;;;
2021/09/22 03:57:53;;;;;;;18.6;13.3;;;;;;;6.86;89.4375;96323.8;;;;
2021/09/22 03:58:53;;;;;;;18.6;13.3;;;;;;;6.86;89.4375;96323.8;;;;
2021/09/22 03:59:53;;;;;;;18.6;13.3;;;;;;;6.86;89.4375;96323.8;;;;
2021/09/22 04:00:54;;;;;;;18.6;13.3;;;;;;;6.86;89.4375;96323.8;;;;
2021/09/22 04:01:54;;;;;;;17.7;13.05;;;;;;;6.71;89.37402;96324.34;;;;
2021/09/22 04:02:55;;;;;;;17.7;13.05;;;;;;;6.71;89.37402;96324.34;;;;
2021/09/22 04:03:55;;;;;;;17.7;13.05;;;;;;;6.71;89.37402;96324.34;;;;
2021/09/22 04:04:56;;;;;;;17.7;13.05;;;;;;;6.71;89.37402;96324.34;;;;
2021/09/22 04:05:56;;;;;;;17.7;13.05;;;;;;;6.71;89.37402;96324.34;;;;
2021/09/22 04:06:58;;;;;;;17.7;13.05;;;;;;;6.71;89.37402;96324.34;;;;
2021/09/22 04:07:58;;;;;;;17.7;13.05;;;;;;;6.71;89.37402;96324.34;;;;
2021/09/22 04:08:59;;;;;;;17.7;13.05;;;;;;;6.71;89.37402;96324.34;;;;
2021/09/22 04:09:59;;;;;;;17.7;13.05;;;;;;;6.71;89.37402;96324.34;;;;
2021/09/22 04:11:00;;;;;;;17.7;13.05;;;;;;;6.71;89.37402;96324.34;;;;
2021/09/22 04:12:00;;;;;;;18;12.7;;;;;;;6.55;89.52051;96318.64;;;;
2021/09/22 04:13:01;;;;;;;18;12.7;;;;;;;6.55;89.52051;96318.64;;;;
2021/09/22 04:14:01;;;;;;;18;12.7;;;;;;;6.55;89.52051;96318.64;;;;
2021/09/22 04:15:02;;;;;;;18;12.7;;;;;;;6.55;89.52051;96318.64;;;;
2021/09/22 04:16:03;;;;;;;18;12.7;;;;;;;6.55;89.52051;96318.64;;;;
2021/09/22 04:17:04;;;;;;;18;12.7;;;;;;;6.55;89.52051;96318.64;;;;
2021/09/22 04:18:04;;;;;;;18;12.7;;;;;;;6.55;89.52051;96318.64;;;;
2021/09/22 04:19:05;;;;;;;18;12.7;;;;;;;6.55;89.52051;96318.64;;;;
2021/09/22 04:20:05;;;;;;;18;12.7;;;;;;;6.55;89.52051;96318.64;;;;
2021/09/22 04:21:07;;;;;;;18;12.7;;;;;;;6.55;89.52051;96318.64;;;;
2021/09/22 04:22:08;;;;;;;18;12.7;;;;;;;6.55;89.52051;96318.64;;;;
2021/09/22 04:23:08;;;;;;;17.55;12.9;;;;;;;6.4;89.60547;96308.03;;;;
2021/09/22 04:24:10;;;;;;;17.55;12.9;;;;;;;6.4;89.60547;96308.03;;;;
2021/09/22 04:25:11;;;;;;;17.55;12.9;;;;;;;6.4;89.60547;96308.03;;;;
2021/09/22 04:26:11;;;;;;;17.55;12.9;;;;;;;6.4;89.60547;96308.03;;;;
2021/09/22 04:27:12;;;;;;;17.55;12.9;;;;;;;6.4;89.60547;96308.03;;;;
2021/09/22 04:28:13;;;;;;;17.55;12.9;;;;;;;6.4;89.60547;96308.03;;;;
2021/09/22 04:29:14;;;;;;;17.55;12.9;;;;;;;6.4;89.60547;96308.03;;;;
2021/09/22 04:30:14;;;;;;;17.55;12.9;;;;;;;6.4;89.60547;96308.03;;;;
2021/09/22 04:31:15;;;;;;;17.55;12.9;;;;;;;6.4;89.60547;96308.03;;;;
2021/09/22 04:32:15;;;;;;;17.55;12.9;;;;;;;6.4;89.60547;96308.03;;;;
2021/09/22 04:33:16;;;;;;;19.7;12.25;;;;;;;6.27;89.69629;96301.96;;;;
2021/09/22 04:34:16;;;;;;;19.7;12.25;;;;;;;6.27;89.69629;96301.96;;;;
2021/09/22 04:35:17;;;;;;;19.7;12.25;;;;;;;6.27;89.69629;96301.96;;;;
2021/09/22 04:36:18;;;;;;;19.7;12.25;;;;;;;6.27;89.69629;96301.96;;;;
2021/09/22 04:37:18;;;;;;;19.7;12.25;;;;;;;6.27;89.69629;96301.96;;;;
2021/09/22 04:38:19;;;;;;;19.7;12.25;;;;;;;6.27;89.69629;96301.96;;;;
2021/09/22 04:39:19;;;;;;;19.7;12.25;;;;;;;6.27;89.69629;96301.96;;;;
2021/09/22 04:40:20;;;;;;;19.7;12.25;;;;;;;6.27;89.69629;96301.96;;;;
2021/09/22 04:41:21;;;;;;;19.7;12.25;;;;;;;6.27;89.69629;96301.96;;;;
2021/09/22 04:42:22;;;;;;;19.7;12.25;;;;;;;6.27;89.69629;96301.96;;;;
2021/09/22 04:43:22;;;;;;;19.7;12.25;;;;;;;6.27;89.69629;96301.96;;;;
2021/09/22 04:44:22;;;;;;;19.7;12.25;;;;;;;6.27;89.69629;96301.96;;;;
2021/09/22 04:45:25;;;;;;;19.7;12.25;;;;;;;6.27;89.69629;96301.96;;;;
2021/09/22 04:46:26;;;;;;;19.7;12.25;;;;;;;6.27;89.69629;96301.96;;;;
2021/09/22 04:47:27;;;;;;;19.7;12.25;;;;;;;6.27;89.69629;96301.96;;;;
2021/09/22 04:48:29;;;;;;;19.7;12.25;;;;;;;6.27;89.69629;96301.96;;;;
2021/09/22 04:49:29;;;;;;;19.7;12.25;;;;;;;6.27;89.69629;96301.96;;;;
2021/09/22 04:50:30;;;;;;;19.7;12.25;;;;;;;6.27;89.69629;96301.96;;;;
2021/09/22 04:51:31;;;;;;;19.7;12.25;;;;;;;6.27;89.69629;96301.96;;;;
2021/09/22 04:52:31;;;;;;;19.7;12.25;;;;;;;6.27;89.69629;96301.96;;;;
2021/09/22 04:53:32;;;;;;;19.7;12.25;;;;;;;6.27;89.69629;96301.96;;;;
2021/09/22 04:54:33;;;;;;;17.1;11.2;;;;;;;6.04;89.74512;96309.67;;;;
2021/09/22 04:55:33;;;;;;;17.1;11.2;;;;;;;6.04;89.74512;96309.67;;;;
2021/09/22 04:56:34;;;;;;;17.1;11.2;;;;;;;6.04;89.74512;96309.67;;;;
2021/09/22 04:57:34;;;;;;;17.1;11.2;;;;;;;6.04;89.74512;96309.67;;;;
2021/09/22 04:58:35;;;;;;;17.1;11.2;;;;;;;6.04;89.74512;96309.67;;;;
2021/09/22 04:59:36;;;;;;;17.1;11.2;;;;;;;6.04;89.74512;96309.67;;;;
2021/09/22 05:00:36;;;;;;;17.1;11.2;;;;;;;6.04;89.74512;96309.67;;;;
2021/09/22 05:01:38;;;;;;;17.1;11.2;;;;;;;6.04;89.74512;96309.67;;;;
2021/09/22 05:02:40;;;;;;;17.1;11.2;;;;;;;6.04;89.74512;96309.67;;;;
2021/09/22 05:03:40;;;;;;;17.1;11.2;;;;;;;6.04;89.74512;96309.67;;;;
2021/09/22 05:04:41;;;;;;;17.1;11.2;;;;;;;6.04;89.74512;96309.67;;;;
2021/09/22 05:05:41;;;;;;;19;12.75;;;;;;;5.94;89.78418;96320.29;;;;
2021/09/22 05:06:42;;;;;;;19;12.75;;;;;;;5.94;89.78418;96320.29;;;;
2021/09/22 05:07:42;;;;;;;19;12.75;;;;;;;5.94;89.78418;96320.29;;;;
2021/09/22 05:08:43;;;;;;;19;12.75;;;;;;;5.94;89.78418;96320.29;;;;
2021/09/22 05:09:44;;;;;;;19;12.75;;;;;;;5.94;89.78418;96320.29;;;;
2021/09/22 05:10:44;;;;;;;19;12.75;;;;;;;5.94;89.78418;96320.29;;;;
2021/09/22 05:11:45;;;;;;;19;12.75;;;;;;;5.94;89.78418;96320.29;;;;
2021/09/22 05:12:45;;;;;;;19;12.75;;;;;;;5.94;89.78418;96320.29;;;;
2021/09/22 05:13:46;;;;;;;19;12.75;;;;;;;5.94;89.78418;96320.29;;;;
2021/09/22 05:14:46;;;;;;;19;12.75;;;;;;;5.94;89.78418;96320.29;;;;
2021/09/22 05:15:47;;;;;;;19;12.75;;;;;;;5.94;89.78418;96320.29;;;;
2021/09/22 05:16:47;;;;;;;19;12.75;;;;;;;5.94;89.78418;96320.29;;;;
2021/09/22 05:17:48;;;;;;;19;12.75;;;;;;;5.94;89.78418;96320.29;;;;
2021/09/22 05:18:48;;;;;;;19;12.75;;;;;;;5.94;89.78418;96320.29;;;;
2021/09/22 05:19:49;;;;;;;19;12.75;;;;;;;5.94;89.78418;96320.29;;;;
2021/09/22 05:20:49;;;;;;;19;12.75;;;;;;;5.94;89.78418;96320.29;;;;
2021/09/22 05:21:50;;;;;;;19;12.75;;;;;;;5.94;89.78418;96320.29;;;;
2021/09/22 05:22:50;;;;;;;19;12.75;;;;;;;5.94;89.78418;96320.29;;;;
2021/09/22 05:23:51;;;;;;;19;12.75;;;;;;;5.94;89.78418;96320.29;;;;
2021/09/22 05:24:52;;;;;;;19;12.75;;;;;;;5.94;89.78418;96320.29;;;;
2021/09/22 05:25:52;;;;;;;19;12.75;;;;;;;5.94;89.78418;96320.29;;;;
2021/09/22 05:26:53;;;;;;;25.75;13.35;;;;;;;6.01;89.7793;96334.14;;;;
2021/09/22 05:27:53;;;;;;;25.75;13.35;;;;;;;6.01;89.7793;96334.14;;;;
2021/09/22 05:28:54;;;;;;;25.75;13.35;;;;;;;6.01;89.7793;96334.14;;;;
2021/09/22 05:29:54;;;;;;;25.75;13.35;;;;;;;6.01;89.7793;96334.14;;;;
2021/09/22 05:30:55;;;;;;;25.75;13.35;;;;;;;6.01;89.7793;96334.14;;;;
2021/09/22 05:31:55;;;;;;;25.75;13.35;;;;;;;6.01;89.7793;96334.14;;;;
2021/09/22 05:32:56;;;;;;;25.75;13.35;;;;;;;6.01;89.7793;96334.14;;;;
2021/09/22 05:33:56;;;;;;;25.75;13.35;;;;;;;6.01;89.7793;96334.14;;;;
2021/09/22 05:34:58;;;;;;;25.75;13.35;;;;;;;6.01;89.7793;96334.14;;;;
2021/09/22 05:35:59;;;;;;;25.75;13.35;;;;;;;6.01;89.7793;96334.14;;;;
2021/09/22 05:36:59;;;;;;;25.75;13.35;;;;;;;6.01;89.7793;96334.14;;;;
2021/09/22 05:38:00;;;;;;;19.7;13.85;;;;;;;6.2;89.49121;96338.16;;;;
2021/09/22 05:39:00;;;;;;;19.7;13.85;;;;;;;6.2;89.49121;96338.16;;;;
2021/09/22 05:40:01;;;;;;;19.7;13.85;;;;;;;6.2;89.49121;96338.16;;;;
2021/09/22 05:41:03;;;;;;;19.7;13.85;;;;;;;6.2;89.49121;96338.16;;;;
2021/09/22 05:42:04;;;;;;;19.7;13.85;;;;;;;6.2;89.49121;96338.16;;;;
2021/09/22 05:43:05;;;;;;;19.7;13.85;;;;;;;6.2;89.49121;96338.16;;;;
2021/09/22 05:44:06;;;;;;;19.7;13.85;;;;;;;6.2;89.49121;96338.16;;;;
2021/09/22 05:45:07;;;;;;;19.7;13.85;;;;;;;6.2;89.49121;96338.16;;;;
2021/09/22 05:46:08;;;;;;;19.7;13.85;;;;;;;6.2;89.49121;96338.16;;;;
2021/09/22 05:47:09;;;;;;;19.7;13.85;;;;;;;6.2;89.49121;96338.16;;;;
2021/09/22 05:48:09;;;;;;;20.25;13.7;;;;;;;6.48;89.33887;96336.92;;;;